sensor_id;sensor_type;location;lat;lon;timestamp;P1;durP1;ratioP1;P2;durP2;ratioP2
71558;SDS011;59382;43.852;25.952;2023-02-15T00:01:18;21.65;;;10.88;;
71558;SDS011;59382;43.852;25.952;2023-02-15T00:03:44;26.55;;;12.35;;
71558;SDS011;59382;43.852;25.952;2023-02-15T00:06:09;17.83;;;11.07;;
71558;SDS011;59382;43.852;25.952;2023-02-15T00:08:35;14.45;;;9.80;;
71558;SDS011;59382;43.852;25.952;2023-02-15T00:11:10;16.23;;;9.73;;
71558;SDS011;59382;43.852;25.952;2023-02-15T00:13:40;17.35;;;10.50;;
71558;SDS011;59382;43.852;25.952;2023-02-15T00:16:07;22.45;;;11.27;;
71558;SDS011;59382;43.852;25.952;2023-02-15T00:18:34;22.48;;;9.43;;
71558;SDS011;59382;43.852;25.952;2023-02-15T00:21:07;16.02;;;9.55;;
71558;SDS011;59382;43.852;25.952;2023-02-15T00:23:34;20.00;;;9.98;;
71558;SDS011;59382;43.852;25.952;2023-02-15T00:26:10;17.88;;;9.05;;
71558;SDS011;59382;43.852;25.952;2023-02-15T00:28:37;16.67;;;9.32;;
71558;SDS011;59382;43.852;25.952;2023-02-15T00:31:06;14.70;;;9.30;;
71558;SDS011;59382;43.852;25.952;2023-02-15T00:33:34;17.60;;;9.35;;
71558;SDS011;59382;43.852;25.952;2023-02-15T00:35:59;20.38;;;8.88;;
71558;SDS011;59382;43.852;25.952;2023-02-15T00:38:26;19.98;;;9.50;;
71558;SDS011;59382;43.852;25.952;2023-02-15T00:40:53;20.33;;;9.73;;
71558;SDS011;59382;43.852;25.952;2023-02-15T00:43:19;16.40;;;8.60;;
71558;SDS011;59382;43.852;25.952;2023-02-15T00:45:45;18.55;;;9.25;;
71558;SDS011;59382;43.852;25.952;2023-02-15T00:48:11;14.50;;;7.55;;
71558;SDS011;59382;43.852;25.952;2023-02-15T00:50:38;19.23;;;10.50;;
71558;SDS011;59382;43.852;25.952;2023-02-15T00:53:04;15.10;;;8.68;;
71558;SDS011;59382;43.852;25.952;2023-02-15T00:55:29;17.70;;;9.50;;
71558;SDS011;59382;43.852;25.952;2023-02-15T00:57:55;18.88;;;9.77;;
71558;SDS011;59382;43.852;25.952;2023-02-15T01:00:20;17.30;;;9.68;;
71558;SDS011;59382;43.852;25.952;2023-02-15T01:02:46;20.90;;;10.23;;
71558;SDS011;59382;43.852;25.952;2023-02-15T01:05:11;16.73;;;10.23;;
71558;SDS011;59382;43.852;25.952;2023-02-15T01:07:37;15.13;;;9.05;;
71558;SDS011;59382;43.852;25.952;2023-02-15T01:10:04;14.93;;;8.80;;
71558;SDS011;59382;43.852;25.952;2023-02-15T01:12:30;18.60;;;9.70;;
71558;SDS011;59382;43.852;25.952;2023-02-15T01:14:56;19.25;;;10.65;;
71558;SDS011;59382;43.852;25.952;2023-02-15T01:17:21;18.95;;;9.38;;
71558;SDS011;59382;43.852;25.952;2023-02-15T01:19:47;17.08;;;9.55;;
71558;SDS011;59382;43.852;25.952;2023-02-15T01:22:13;15.45;;;9.70;;
71558;SDS011;59382;43.852;25.952;2023-02-15T01:24:38;18.58;;;10.60;;
71558;SDS011;59382;43.852;25.952;2023-02-15T01:27:03;15.45;;;9.88;;
71558;SDS011;59382;43.852;25.952;2023-02-15T01:29:29;21.15;;;9.80;;
71558;SDS011;59382;43.852;25.952;2023-02-15T01:31:54;16.80;;;10.55;;
71558;SDS011;59382;43.852;25.952;2023-02-15T01:34:20;22.90;;;11.65;;
71558;SDS011;59382;43.852;25.952;2023-02-15T01:36:45;22.83;;;11.32;;
71558;SDS011;59382;43.852;25.952;2023-02-15T01:39:11;20.23;;;12.20;;
71558;SDS011;59382;43.852;25.952;2023-02-15T01:41:36;19.98;;;11.93;;
71558;SDS011;59382;43.852;25.952;2023-02-15T01:44:02;19.13;;;10.57;;
71558;SDS011;59382;43.852;25.952;2023-02-15T01:46:38;21.25;;;10.32;;
71558;SDS011;59382;43.852;25.952;2023-02-15T01:49:14;18.00;;;10.80;;
71558;SDS011;59382;43.852;25.952;2023-02-15T01:51:43;20.23;;;9.85;;
71558;SDS011;59382;43.852;25.952;2023-02-15T01:54:19;19.60;;;10.23;;
71558;SDS011;59382;43.852;25.952;2023-02-15T01:56:52;23.52;;;11.18;;
71558;SDS011;59382;43.852;25.952;2023-02-15T01:59:23;22.20;;;9.55;;
71558;SDS011;59382;43.852;25.952;2023-02-15T02:01:51;19.88;;;10.75;;
71558;SDS011;59382;43.852;25.952;2023-02-15T02:04:24;19.85;;;10.15;;
71558;SDS011;59382;43.852;25.952;2023-02-15T02:06:52;22.63;;;12.23;;
71558;SDS011;59382;43.852;25.952;2023-02-15T02:09:19;23.35;;;13.45;;
71558;SDS011;59382;43.852;25.952;2023-02-15T02:11:44;23.55;;;13.68;;
71558;SDS011;59382;43.852;25.952;2023-02-15T02:14:12;23.45;;;12.43;;
71558;SDS011;59382;43.852;25.952;2023-02-15T02:16:40;21.88;;;12.20;;
71558;SDS011;59382;43.852;25.952;2023-02-15T02:31:11;20.98;;;11.05;;
71558;SDS011;59382;43.852;25.952;2023-02-15T02:36:21;19.33;;;10.38;;
71558;SDS011;59382;43.852;25.952;2023-02-15T02:41:42;18.45;;;10.57;;
71558;SDS011;59382;43.852;25.952;2023-02-15T02:46:41;17.15;;;10.85;;
71558;SDS011;59382;43.852;25.952;2023-02-15T02:49:08;16.73;;;10.20;;
71558;SDS011;59382;43.852;25.952;2023-02-15T02:51:34;14.55;;;9.65;;
71558;SDS011;59382;43.852;25.952;2023-02-15T02:54:00;17.15;;;9.20;;
71558;SDS011;59382;43.852;25.952;2023-02-15T02:56:36;17.10;;;9.88;;
71558;SDS011;59382;43.852;25.952;2023-02-15T02:59:11;18.75;;;9.20;;
71558;SDS011;59382;43.852;25.952;2023-02-15T03:01:49;18.30;;;10.20;;
71558;SDS011;59382;43.852;25.952;2023-02-15T03:04:22;16.33;;;9.10;;
71558;SDS011;59382;43.852;25.952;2023-02-15T03:07:02;16.77;;;9.43;;
71558;SDS011;59382;43.852;25.952;2023-02-15T03:09:36;17.73;;;9.77;;
71558;SDS011;59382;43.852;25.952;2023-02-15T03:12:08;17.85;;;10.10;;
71558;SDS011;59382;43.852;25.952;2023-02-15T03:14:40;19.15;;;11.02;;
71558;SDS011;59382;43.852;25.952;2023-02-15T03:17:07;17.33;;;9.73;;
71558;SDS011;59382;43.852;25.952;2023-02-15T03:19:36;21.30;;;10.98;;
71558;SDS011;59382;43.852;25.952;2023-02-15T03:22:04;17.63;;;10.65;;
71558;SDS011;59382;43.852;25.952;2023-02-15T03:24:37;20.63;;;12.10;;
71558;SDS011;59382;43.852;25.952;2023-02-15T03:27:10;18.80;;;11.45;;
71558;SDS011;59382;43.852;25.952;2023-02-15T03:29:43;19.73;;;12.75;;
71558;SDS011;59382;43.852;25.952;2023-02-15T03:32:22;28.90;;;13.57;;
71558;SDS011;59382;43.852;25.952;2023-02-15T03:42:57;21.58;;;11.80;;
71558;SDS011;59382;43.852;25.952;2023-02-15T03:45:28;25.67;;;14.18;;
71558;SDS011;59382;43.852;25.952;2023-02-15T03:47:56;24.73;;;13.93;;
71558;SDS011;59382;43.852;25.952;2023-02-15T03:50:29;25.92;;;14.68;;
71558;SDS011;59382;43.852;25.952;2023-02-15T03:53:17;20.92;;;12.02;;
71558;SDS011;59382;43.852;25.952;2023-02-15T03:55:46;21.35;;;11.88;;
71558;SDS011;59382;43.852;25.952;2023-02-15T03:58:12;25.42;;;13.70;;
71558;SDS011;59382;43.852;25.952;2023-02-15T04:00:58;25.73;;;12.77;;
71558;SDS011;59382;43.852;25.952;2023-02-15T04:04:07;21.70;;;12.13;;
71558;SDS011;59382;43.852;25.952;2023-02-15T04:06:40;21.92;;;12.77;;
71558;SDS011;59382;43.852;25.952;2023-02-15T04:09:06;22.33;;;11.85;;
71558;SDS011;59382;43.852;25.952;2023-02-15T04:11:50;17.77;;;10.93;;
71558;SDS011;59382;43.852;25.952;2023-02-15T04:14:15;22.48;;;13.13;;
71558;SDS011;59382;43.852;25.952;2023-02-15T04:17:00;22.05;;;12.73;;
71558;SDS011;59382;43.852;25.952;2023-02-15T04:19:25;22.83;;;12.77;;
71558;SDS011;59382;43.852;25.952;2023-02-15T04:22:09;22.48;;;11.82;;
71558;SDS011;59382;43.852;25.952;2023-02-15T04:24:53;22.27;;;11.02;;
71558;SDS011;59382;43.852;25.952;2023-02-15T04:27:34;19.80;;;11.77;;
71558;SDS011;59382;43.852;25.952;2023-02-15T04:30:00;18.67;;;10.88;;
71558;SDS011;59382;43.852;25.952;2023-02-15T04:32:25;20.15;;;11.32;;
71558;SDS011;59382;43.852;25.952;2023-02-15T04:34:52;23.50;;;12.07;;
71558;SDS011;59382;43.852;25.952;2023-02-15T04:37:17;19.38;;;12.52;;
71558;SDS011;59382;43.852;25.952;2023-02-15T04:39:43;22.85;;;13.25;;
71558;SDS011;59382;43.852;25.952;2023-02-15T04:42:08;26.70;;;13.63;;
71558;SDS011;59382;43.852;25.952;2023-02-15T04:44:34;28.52;;;14.00;;
71558;SDS011;59382;43.852;25.952;2023-02-15T04:46:59;25.50;;;14.25;;
71558;SDS011;59382;43.852;25.952;2023-02-15T04:49:24;26.35;;;14.52;;
71558;SDS011;59382;43.852;25.952;2023-02-15T04:51:50;25.98;;;13.52;;
71558;SDS011;59382;43.852;25.952;2023-02-15T04:54:15;32.83;;;14.52;;
71558;SDS011;59382;43.852;25.952;2023-02-15T04:56:41;29.70;;;14.30;;
71558;SDS011;59382;43.852;25.952;2023-02-15T04:59:09;24.60;;;14.63;;
71558;SDS011;59382;43.852;25.952;2023-02-15T05:01:36;29.83;;;15.23;;
71558;SDS011;59382;43.852;25.952;2023-02-15T05:04:01;27.23;;;15.43;;
71558;SDS011;59382;43.852;25.952;2023-02-15T05:06:27;25.30;;;13.57;;
71558;SDS011;59382;43.852;25.952;2023-02-15T05:08:53;24.50;;;13.35;;
71558;SDS011;59382;43.852;25.952;2023-02-15T05:11:19;25.33;;;12.55;;
71558;SDS011;59382;43.852;25.952;2023-02-15T05:13:44;25.15;;;13.02;;
71558;SDS011;59382;43.852;25.952;2023-02-15T05:16:10;29.42;;;14.27;;
71558;SDS011;59382;43.852;25.952;2023-02-15T05:18:35;35.38;;;14.40;;
71558;SDS011;59382;43.852;25.952;2023-02-15T05:21:01;26.38;;;15.13;;
71558;SDS011;59382;43.852;25.952;2023-02-15T05:23:27;23.55;;;13.55;;
71558;SDS011;59382;43.852;25.952;2023-02-15T05:25:52;27.92;;;15.10;;
71558;SDS011;59382;43.852;25.952;2023-02-15T05:28:37;25.30;;;14.88;;
71558;SDS011;59382;43.852;25.952;2023-02-15T05:33:36;32.33;;;15.75;;
71558;SDS011;59382;43.852;25.952;2023-02-15T05:36:02;24.92;;;14.65;;
71558;SDS011;59382;43.852;25.952;2023-02-15T05:38:28;34.42;;;15.40;;
71558;SDS011;59382;43.852;25.952;2023-02-15T05:40:53;28.80;;;13.43;;
71558;SDS011;59382;43.852;25.952;2023-02-15T05:43:19;26.95;;;13.93;;
71558;SDS011;59382;43.852;25.952;2023-02-15T05:45:54;24.75;;;13.48;;
71558;SDS011;59382;43.852;25.952;2023-02-15T05:48:21;27.52;;;13.77;;
71558;SDS011;59382;43.852;25.952;2023-02-15T05:50:56;27.05;;;14.85;;
71558;SDS011;59382;43.852;25.952;2023-02-15T05:53:26;30.58;;;15.23;;
71558;SDS011;59382;43.852;25.952;2023-02-15T05:55:52;38.35;;;20.73;;
71558;SDS011;59382;43.852;25.952;2023-02-15T05:58:19;36.50;;;18.55;;
71558;SDS011;59382;43.852;25.952;2023-02-15T06:00:45;35.95;;;19.10;;
71558;SDS011;59382;43.852;25.952;2023-02-15T06:03:10;38.20;;;18.80;;
71558;SDS011;59382;43.852;25.952;2023-02-15T06:05:36;31.05;;;17.40;;
71558;SDS011;59382;43.852;25.952;2023-02-15T06:08:02;31.27;;;15.10;;
71558;SDS011;59382;43.852;25.952;2023-02-15T06:10:27;36.60;;;17.50;;
71558;SDS011;59382;43.852;25.952;2023-02-15T06:12:53;38.08;;;18.85;;
71558;SDS011;59382;43.852;25.952;2023-02-15T06:15:18;45.13;;;19.20;;
71558;SDS011;59382;43.852;25.952;2023-02-15T06:17:44;44.05;;;20.40;;
71558;SDS011;59382;43.852;25.952;2023-02-15T06:20:09;30.90;;;18.38;;
71558;SDS011;59382;43.852;25.952;2023-02-15T06:22:35;43.33;;;23.45;;
71558;SDS011;59382;43.852;25.952;2023-02-15T06:25:01;50.00;;;25.42;;
71558;SDS011;59382;43.852;25.952;2023-02-15T06:27:26;46.35;;;24.65;;
71558;SDS011;59382;43.852;25.952;2023-02-15T06:29:52;52.10;;;24.95;;
71558;SDS011;59382;43.852;25.952;2023-02-15T06:32:17;44.38;;;22.27;;
71558;SDS011;59382;43.852;25.952;2023-02-15T06:34:43;43.65;;;24.48;;
71558;SDS011;59382;43.852;25.952;2023-02-15T06:37:08;47.70;;;26.15;;
71558;SDS011;59382;43.852;25.952;2023-02-15T06:39:34;49.65;;;26.20;;
71558;SDS011;59382;43.852;25.952;2023-02-15T06:42:02;39.58;;;20.13;;
71558;SDS011;59382;43.852;25.952;2023-02-15T06:44:28;54.95;;;34.80;;
71558;SDS011;59382;43.852;25.952;2023-02-15T06:46:54;30.23;;;16.88;;
71558;SDS011;59382;43.852;25.952;2023-02-15T06:49:19;18.10;;;11.75;;
71558;SDS011;59382;43.852;25.952;2023-02-15T06:51:45;19.10;;;10.90;;
71558;SDS011;59382;43.852;25.952;2023-02-15T06:54:10;36.72;;;12.90;;
71558;SDS011;59382;43.852;25.952;2023-02-15T06:56:36;49.65;;;17.35;;
71558;SDS011;59382;43.852;25.952;2023-02-15T06:59:01;35.50;;;19.83;;
71558;SDS011;59382;43.852;25.952;2023-02-15T07:01:27;37.15;;;22.42;;
71558;SDS011;59382;43.852;25.952;2023-02-15T07:03:52;48.22;;;27.20;;
71558;SDS011;59382;43.852;25.952;2023-02-15T07:06:18;43.55;;;22.83;;
71558;SDS011;59382;43.852;25.952;2023-02-15T07:08:43;45.00;;;23.30;;
71558;SDS011;59382;43.852;25.952;2023-02-15T07:11:09;42.25;;;23.65;;
71558;SDS011;59382;43.852;25.952;2023-02-15T07:13:53;38.85;;;21.58;;
71558;SDS011;59382;43.852;25.952;2023-02-15T07:16:19;34.85;;;20.05;;
71558;SDS011;59382;43.852;25.952;2023-02-15T07:18:45;38.85;;;19.95;;
71558;SDS011;59382;43.852;25.952;2023-02-15T07:21:10;33.00;;;19.15;;
71558;SDS011;59382;43.852;25.952;2023-02-15T07:23:36;32.25;;;17.08;;
71558;SDS011;59382;43.852;25.952;2023-02-15T07:26:03;27.38;;;17.08;;
71558;SDS011;59382;43.852;25.952;2023-02-15T07:28:30;34.58;;;18.02;;
71558;SDS011;59382;43.852;25.952;2023-02-15T07:30:56;32.88;;;17.90;;
71558;SDS011;59382;43.852;25.952;2023-02-15T07:33:22;32.05;;;18.70;;
71558;SDS011;59382;43.852;25.952;2023-02-15T07:35:49;33.72;;;18.60;;
71558;SDS011;59382;43.852;25.952;2023-02-15T07:38:16;31.80;;;18.27;;
71558;SDS011;59382;43.852;25.952;2023-02-15T07:40:42;30.42;;;18.27;;
71558;SDS011;59382;43.852;25.952;2023-02-15T07:43:08;29.80;;;17.45;;
71558;SDS011;59382;43.852;25.952;2023-02-15T07:45:34;29.55;;;16.17;;
71558;SDS011;59382;43.852;25.952;2023-02-15T07:48:03;38.25;;;21.13;;
71558;SDS011;59382;43.852;25.952;2023-02-15T07:50:29;29.85;;;15.90;;
71558;SDS011;59382;43.852;25.952;2023-02-15T07:52:56;22.70;;;15.48;;
71558;SDS011;59382;43.852;25.952;2023-02-15T07:55:21;25.23;;;15.07;;
71558;SDS011;59382;43.852;25.952;2023-02-15T07:57:48;22.58;;;13.98;;
71558;SDS011;59382;43.852;25.952;2023-02-15T08:00:16;24.15;;;14.02;;
71558;SDS011;59382;43.852;25.952;2023-02-15T08:02:49;22.73;;;12.68;;
71558;SDS011;59382;43.852;25.952;2023-02-15T08:05:36;19.05;;;12.85;;
71558;SDS011;59382;43.852;25.952;2023-02-15T08:08:02;23.95;;;12.43;;
71558;SDS011;59382;43.852;25.952;2023-02-15T08:10:27;25.25;;;13.30;;
71558;SDS011;59382;43.852;25.952;2023-02-15T08:13:11;24.42;;;13.70;;
71558;SDS011;59382;43.852;25.952;2023-02-15T08:15:37;21.67;;;12.38;;
71558;SDS011;59382;43.852;25.952;2023-02-15T08:18:02;21.13;;;12.65;;
71558;SDS011;59382;43.852;25.952;2023-02-15T08:20:28;20.20;;;12.95;;
71558;SDS011;59382;43.852;25.952;2023-02-15T08:22:54;22.33;;;11.93;;
71558;SDS011;59382;43.852;25.952;2023-02-15T08:25:19;22.83;;;12.80;;
71558;SDS011;59382;43.852;25.952;2023-02-15T08:27:45;17.95;;;11.13;;
71558;SDS011;59382;43.852;25.952;2023-02-15T08:30:11;20.67;;;12.73;;
71558;SDS011;59382;43.852;25.952;2023-02-15T08:32:39;23.08;;;12.75;;
71558;SDS011;59382;43.852;25.952;2023-02-15T08:35:05;24.10;;;11.93;;
71558;SDS011;59382;43.852;25.952;2023-02-15T08:37:31;23.05;;;12.85;;
71558;SDS011;59382;43.852;25.952;2023-02-15T08:39:57;22.77;;;13.10;;
71558;SDS011;59382;43.852;25.952;2023-02-15T08:42:23;25.45;;;12.75;;
71558;SDS011;59382;43.852;25.952;2023-02-15T08:44:48;27.23;;;12.60;;
71558;SDS011;59382;43.852;25.952;2023-02-15T08:47:16;21.10;;;12.05;;
71558;SDS011;59382;43.852;25.952;2023-02-15T08:49:42;25.38;;;14.30;;
71558;SDS011;59382;43.852;25.952;2023-02-15T08:52:08;23.45;;;12.57;;
71558;SDS011;59382;43.852;25.952;2023-02-15T08:54:35;31.35;;;13.25;;
71558;SDS011;59382;43.852;25.952;2023-02-15T08:57:00;21.58;;;11.70;;
71558;SDS011;59382;43.852;25.952;2023-02-15T08:59:26;22.15;;;12.82;;
71558;SDS011;59382;43.852;25.952;2023-02-15T09:01:53;25.73;;;13.30;;
71558;SDS011;59382;43.852;25.952;2023-02-15T09:04:19;28.17;;;12.98;;
71558;SDS011;59382;43.852;25.952;2023-02-15T09:06:46;29.48;;;10.98;;
71558;SDS011;59382;43.852;25.952;2023-02-15T09:09:13;21.70;;;12.88;;
71558;SDS011;59382;43.852;25.952;2023-02-15T09:11:43;40.10;;;13.32;;
71558;SDS011;59382;43.852;25.952;2023-02-15T09:14:14;27.95;;;12.38;;
71558;SDS011;59382;43.852;25.952;2023-02-15T09:16:43;31.67;;;13.15;;
71558;SDS011;59382;43.852;25.952;2023-02-15T09:19:11;23.98;;;13.23;;
71558;SDS011;59382;43.852;25.952;2023-02-15T09:21:37;24.67;;;12.57;;
71558;SDS011;59382;43.852;25.952;2023-02-15T09:24:04;25.98;;;13.02;;
71558;SDS011;59382;43.852;25.952;2023-02-15T09:26:33;28.45;;;10.07;;
71558;SDS011;59382;43.852;25.952;2023-02-15T09:29:00;31.70;;;13.68;;
71558;SDS011;59382;43.852;25.952;2023-02-15T09:31:29;26.13;;;12.23;;
71558;SDS011;59382;43.852;25.952;2023-02-15T09:33:58;22.38;;;12.48;;
71558;SDS011;59382;43.852;25.952;2023-02-15T09:36:29;20.90;;;11.50;;
71558;SDS011;59382;43.852;25.952;2023-02-15T09:38:57;28.40;;;13.43;;
71558;SDS011;59382;43.852;25.952;2023-02-15T09:55:57;37.67;;;12.65;;
71558;SDS011;59382;43.852;25.952;2023-02-15T09:58:40;28.13;;;11.57;;
71558;SDS011;59382;43.852;25.952;2023-02-15T10:07:17;24.40;;;12.45;;
71558;SDS011;59382;43.852;25.952;2023-02-15T10:10:21;25.77;;;11.82;;
71558;SDS011;59382;43.852;25.952;2023-02-15T10:16:12;80.95;;;15.45;;
71558;SDS011;59382;43.852;25.952;2023-02-15T10:18:35;21.13;;;12.57;;
71558;SDS011;59382;43.852;25.952;2023-02-15T10:21:16;32.38;;;11.95;;
71558;SDS011;59382;43.852;25.952;2023-02-15T10:27:04;27.60;;;11.98;;
71558;SDS011;59382;43.852;25.952;2023-02-15T10:29:50;22.45;;;12.00;;
71558;SDS011;59382;43.852;25.952;2023-02-15T10:35:52;29.17;;;12.65;;
71558;SDS011;59382;43.852;25.952;2023-02-15T10:43:17;29.60;;;12.65;;
71558;SDS011;59382;43.852;25.952;2023-02-15T10:46:21;27.77;;;10.90;;
71558;SDS011;59382;43.852;25.952;2023-02-15T10:54:36;38.05;;;11.35;;
71558;SDS011;59382;43.852;25.952;2023-02-15T11:05:16;17.15;;;9.13;;
71558;SDS011;59382;43.852;25.952;2023-02-15T11:08:07;29.83;;;12.02;;
71558;SDS011;59382;43.852;25.952;2023-02-15T11:13:06;19.15;;;10.98;;
71558;SDS011;59382;43.852;25.952;2023-02-15T11:18:23;18.08;;;11.05;;
71558;SDS011;59382;43.852;25.952;2023-02-15T11:23:39;30.42;;;11.98;;
71558;SDS011;59382;43.852;25.952;2023-02-15T11:26:12;26.10;;;11.07;;
71558;SDS011;59382;43.852;25.952;2023-02-15T11:28:43;20.77;;;11.30;;
71558;SDS011;59382;43.852;25.952;2023-02-15T11:31:20;28.40;;;11.95;;
71558;SDS011;59382;43.852;25.952;2023-02-15T11:33:53;31.83;;;11.15;;
71558;SDS011;59382;43.852;25.952;2023-02-15T11:36:33;30.13;;;11.93;;
71558;SDS011;59382;43.852;25.952;2023-02-15T11:39:10;19.52;;;10.82;;
71558;SDS011;59382;43.852;25.952;2023-02-15T11:41:44;21.92;;;11.70;;
71558;SDS011;59382;43.852;25.952;2023-02-15T11:44:20;16.83;;;10.48;;
71558;SDS011;59382;43.852;25.952;2023-02-15T11:46:51;31.30;;;12.18;;
71558;SDS011;59382;43.852;25.952;2023-02-15T11:51:52;25.98;;;11.15;;
71558;SDS011;59382;43.852;25.952;2023-02-15T11:54:19;18.65;;;11.73;;
71558;SDS011;59382;43.852;25.952;2023-02-15T11:56:55;27.13;;;12.02;;
71558;SDS011;59382;43.852;25.952;2023-02-15T11:59:31;36.00;;;11.48;;
71558;SDS011;59382;43.852;25.952;2023-02-15T12:02:00;30.20;;;11.27;;
71558;SDS011;59382;43.852;25.952;2023-02-15T12:09:40;34.22;;;10.45;;
71558;SDS011;59382;43.852;25.952;2023-02-15T12:12:32;21.05;;;9.57;;
71558;SDS011;59382;43.852;25.952;2023-02-15T12:19:57;27.17;;;10.50;;
71558;SDS011;59382;43.852;25.952;2023-02-15T12:22:34;40.47;;;10.63;;
71558;SDS011;59382;43.852;25.952;2023-02-15T12:25:03;29.98;;;10.02;;
71558;SDS011;59382;43.852;25.952;2023-02-15T12:27:45;18.88;;;9.65;;
71558;SDS011;59382;43.852;25.952;2023-02-15T12:32:48;32.70;;;10.25;;
71558;SDS011;59382;43.852;25.952;2023-02-15T12:37:56;18.35;;;8.98;;
71558;SDS011;59382;43.852;25.952;2023-02-15T12:40:25;15.48;;;8.18;;
71558;SDS011;59382;43.852;25.952;2023-02-15T12:42:58;35.67;;;9.20;;
71558;SDS011;59382;43.852;25.952;2023-02-15T12:45:32;14.95;;;7.60;;
71558;SDS011;59382;43.852;25.952;2023-02-15T12:48:17;41.15;;;12.90;;
71558;SDS011;59382;43.852;25.952;2023-02-15T12:50:48;41.90;;;8.93;;
71558;SDS011;59382;43.852;25.952;2023-02-15T12:53:21;16.02;;;8.85;;
71558;SDS011;59382;43.852;25.952;2023-02-15T12:55:59;23.55;;;8.80;;
71558;SDS011;59382;43.852;25.952;2023-02-15T12:58:26;21.70;;;7.93;;
71558;SDS011;59382;43.852;25.952;2023-02-15T13:01:11;22.42;;;7.70;;
71558;SDS011;59382;43.852;25.952;2023-02-15T13:03:38;18.75;;;9.23;;
71558;SDS011;59382;43.852;25.952;2023-02-15T13:06:19;32.08;;;9.25;;
71558;SDS011;59382;43.852;25.952;2023-02-15T13:08:47;19.85;;;9.45;;
71558;SDS011;59382;43.852;25.952;2023-02-15T13:11:19;17.10;;;7.68;;
71558;SDS011;59382;43.852;25.952;2023-02-15T13:13:54;20.05;;;8.05;;
71558;SDS011;59382;43.852;25.952;2023-02-15T13:16:32;25.88;;;9.30;;
71558;SDS011;59382;43.852;25.952;2023-02-15T13:19:09;15.13;;;8.30;;
71558;SDS011;59382;43.852;25.952;2023-02-15T13:21:44;18.58;;;7.40;;
71558;SDS011;59382;43.852;25.952;2023-02-15T13:26:47;12.10;;;8.27;;
71558;SDS011;59382;43.852;25.952;2023-02-15T13:29:18;19.45;;;8.82;;
71558;SDS011;59382;43.852;25.952;2023-02-15T13:31:50;34.72;;;9.23;;
71558;SDS011;59382;43.852;25.952;2023-02-15T13:42:46;36.50;;;9.85;;
71558;SDS011;59382;43.852;25.952;2023-02-15T13:45:28;21.00;;;8.77;;
71558;SDS011;59382;43.852;25.952;2023-02-15T13:53:48;16.73;;;8.20;;
71558;SDS011;59382;43.852;25.952;2023-02-15T13:56:48;21.35;;;9.45;;
71558;SDS011;59382;43.852;25.952;2023-02-15T13:59:29;17.17;;;8.70;;
71558;SDS011;59382;43.852;25.952;2023-02-15T14:10:57;28.65;;;8.82;;
71558;SDS011;59382;43.852;25.952;2023-02-15T14:18:59;34.70;;;9.40;;
71558;SDS011;59382;43.852;25.952;2023-02-15T14:21:31;20.88;;;7.35;;
71558;SDS011;59382;43.852;25.952;2023-02-15T14:31:58;16.02;;;8.60;;
71558;SDS011;59382;43.852;25.952;2023-02-15T14:37:42;18.50;;;7.82;;
71558;SDS011;59382;43.852;25.952;2023-02-15T14:43:24;16.50;;;7.28;;
71558;SDS011;59382;43.852;25.952;2023-02-15T14:49:10;28.33;;;9.73;;
71558;SDS011;59382;43.852;25.952;2023-02-15T14:56:43;14.95;;;8.43;;
71558;SDS011;59382;43.852;25.952;2023-02-15T15:07:21;29.45;;;10.02;;
71558;SDS011;59382;43.852;25.952;2023-02-15T15:10:06;39.10;;;10.63;;
71558;SDS011;59382;43.852;25.952;2023-02-15T15:15:09;28.70;;;10.68;;
71558;SDS011;59382;43.852;25.952;2023-02-15T15:20:05;37.53;;;11.07;;
71558;SDS011;59382;43.852;25.952;2023-02-15T15:22:39;21.40;;;9.73;;
71558;SDS011;59382;43.852;25.952;2023-02-15T15:31:18;19.65;;;9.65;;
71558;SDS011;59382;43.852;25.952;2023-02-15T15:36:45;18.63;;;7.68;;
71558;SDS011;59382;43.852;25.952;2023-02-15T15:50:16;20.17;;;8.07;;
71558;SDS011;59382;43.852;25.952;2023-02-15T15:52:50;34.45;;;9.60;;
71558;SDS011;59382;43.852;25.952;2023-02-15T15:55:18;16.30;;;8.77;;
71558;SDS011;59382;43.852;25.952;2023-02-15T15:57:48;27.38;;;10.40;;
71558;SDS011;59382;43.852;25.952;2023-02-15T16:02:51;26.40;;;11.85;;
71558;SDS011;59382;43.852;25.952;2023-02-15T16:05:18;23.10;;;11.10;;
71558;SDS011;59382;43.852;25.952;2023-02-15T16:07:45;20.50;;;11.13;;
71558;SDS011;59382;43.852;25.952;2023-02-15T16:10:31;36.00;;;12.10;;
71558;SDS011;59382;43.852;25.952;2023-02-15T16:12:57;42.88;;;13.48;;
71558;SDS011;59382;43.852;25.952;2023-02-15T16:15:45;20.05;;;10.82;;
71558;SDS011;59382;43.852;25.952;2023-02-15T16:18:13;31.38;;;11.75;;
71558;SDS011;59382;43.852;25.952;2023-02-15T16:21:12;33.88;;;11.25;;
71558;SDS011;59382;43.852;25.952;2023-02-15T16:23:50;26.38;;;11.82;;
71558;SDS011;59382;43.852;25.952;2023-02-15T16:29:31;22.83;;;12.57;;
71558;SDS011;59382;43.852;25.952;2023-02-15T16:32:05;26.40;;;12.73;;
71558;SDS011;59382;43.852;25.952;2023-02-15T16:34:50;33.53;;;15.90;;
71558;SDS011;59382;43.852;25.952;2023-02-15T16:37:23;51.45;;;16.98;;
71558;SDS011;59382;43.852;25.952;2023-02-15T16:39:52;38.78;;;17.17;;
71558;SDS011;59382;43.852;25.952;2023-02-15T16:42:19;30.17;;;17.13;;
71558;SDS011;59382;43.852;25.952;2023-02-15T16:44:45;39.05;;;16.73;;
71558;SDS011;59382;43.852;25.952;2023-02-15T16:47:25;33.30;;;17.58;;
71558;SDS011;59382;43.852;25.952;2023-02-15T16:49:54;34.90;;;17.17;;
71558;SDS011;59382;43.852;25.952;2023-02-15T16:52:23;26.55;;;13.82;;
71558;SDS011;59382;43.852;25.952;2023-02-15T16:54:53;30.67;;;14.15;;
71558;SDS011;59382;43.852;25.952;2023-02-15T16:57:22;25.77;;;14.75;;
71558;SDS011;59382;43.852;25.952;2023-02-15T16:59:52;24.63;;;13.02;;
71558;SDS011;59382;43.852;25.952;2023-02-15T17:02:21;25.85;;;14.15;;
71558;SDS011;59382;43.852;25.952;2023-02-15T17:10:28;31.08;;;16.02;;
71558;SDS011;59382;43.852;25.952;2023-02-15T17:13:02;30.95;;;15.93;;
71558;SDS011;59382;43.852;25.952;2023-02-15T17:15:38;30.05;;;14.52;;
71558;SDS011;59382;43.852;25.952;2023-02-15T17:20:37;21.92;;;12.18;;
71558;SDS011;59382;43.852;25.952;2023-02-15T17:23:07;25.05;;;12.32;;
71558;SDS011;59382;43.852;25.952;2023-02-15T17:25:47;28.25;;;12.73;;
71558;SDS011;59382;43.852;25.952;2023-02-15T17:28:17;32.65;;;13.02;;
71558;SDS011;59382;43.852;25.952;2023-02-15T17:30:45;34.53;;;11.50;;
71558;SDS011;59382;43.852;25.952;2023-02-15T17:33:23;25.08;;;12.18;;
71558;SDS011;59382;43.852;25.952;2023-02-15T17:38:34;29.00;;;12.55;;
71558;SDS011;59382;43.852;25.952;2023-02-15T17:41:01;39.58;;;26.20;;
71558;SDS011;59382;43.852;25.952;2023-02-15T17:43:27;40.13;;;21.15;;
71558;SDS011;59382;43.852;25.952;2023-02-15T17:45:52;58.55;;;37.45;;
71558;SDS011;59382;43.852;25.952;2023-02-15T17:48:23;34.47;;;20.23;;
71558;SDS011;59382;43.852;25.952;2023-02-15T17:50:56;40.42;;;21.92;;
71558;SDS011;59382;43.852;25.952;2023-02-15T17:53:22;70.03;;;41.75;;
71558;SDS011;59382;43.852;25.952;2023-02-15T17:55:50;53.78;;;30.73;;
71558;SDS011;59382;43.852;25.952;2023-02-15T17:58:16;53.33;;;28.30;;